createdAt,value
2018-05-21T00:09:04.466Z,25.3
2018-05-21T00:19:03.695Z,25.3
2018-05-21T00:29:02.581Z,25.3
2018-05-21T00:39:01.901Z,25.3
2018-05-21T00:49:01.017Z,25.3
2018-05-21T00:59:00.304Z,25.3
2018-05-21T01:08:59.554Z,25.3
2018-05-21T01:18:58.641Z,25.3
2018-05-21T01:28:57.990Z,25.3
2018-05-21T01:38:57.100Z,25.3
2018-05-21T01:48:56.366Z,25.3
2018-05-21T01:58:55.871Z,25.3
2018-05-21T02:08:55.099Z,25.3
2018-05-21T02:18:54.039Z,25.3
2018-05-21T02:28:53.181Z,25.3
2018-05-21T02:38:52.431Z,25.3
2018-05-21T02:48:52.274Z,25.3
2018-05-21T02:58:51.162Z,25.3
2018-05-21T03:08:50.344Z,25.3
2018-05-21T03:18:49.301Z,25.3
2018-05-21T03:28:48.481Z,25.3
2018-05-21T03:38:48.074Z,25.3
2018-05-21T03:48:46.922Z,25.3
2018-05-21T03:58:46.147Z,25.2
2018-05-21T04:08:45.953Z,25.2
2018-05-21T04:18:44.651Z,25.2
2018-05-21T04:28:43.896Z,25.3
2018-05-21T04:38:43.072Z,25.2
2018-05-21T04:48:42.285Z,25.2
2018-05-21T04:58:41.477Z,25.1
2018-05-21T05:08:40.704Z,25.1
2018-05-21T05:18:40.354Z,25.1
2018-05-21T05:28:39.175Z,25.1
2018-05-21T05:38:38.381Z,25.1
2018-05-21T05:48:37.825Z,25.1
2018-05-21T05:58:36.829Z,25
2018-05-21T06:08:35.994Z,25
2018-05-21T06:18:35.259Z,25
2018-05-21T06:28:34.475Z,24.9
2018-05-21T06:38:33.669Z,24.9
2018-05-21T06:48:32.897Z,24.9
2018-05-21T06:58:32.062Z,24.9
2018-05-21T07:08:31.621Z,24.9
2018-05-21T07:18:31.174Z,24.9
2018-05-21T07:28:29.736Z,24.9
2018-05-21T07:38:28.957Z,24.9
2018-05-21T07:48:28.454Z,24.9
2018-05-21T07:58:27.381Z,24.9
2018-05-21T08:08:26.934Z,24.9
2018-05-21T08:18:25.808Z,24.9
2018-05-21T08:28:25.385Z,24.9
2018-05-21T08:38:24.690Z,24.9
2018-05-21T08:48:23.879Z,24.8
2018-05-21T08:58:22.765Z,24.8
2018-05-21T09:08:21.986Z,24.8
2018-05-21T09:18:21.462Z,24.8
2018-05-21T09:28:20.355Z,24.8
2018-05-21T09:38:19.717Z,24.8
2018-05-21T09:48:18.759Z,24.8
2018-05-21T09:58:18.044Z,24.8
2018-05-21T10:08:17.372Z,24.8
2018-05-21T10:18:16.530Z,24.8
2018-05-21T10:28:16.173Z,24.8
2018-05-21T10:38:15.245Z,24.8
2018-05-21T10:48:14.085Z,24.8
2018-05-21T10:58:13.308Z,24.8
2018-05-21T11:08:12.862Z,24.7
2018-05-21T11:18:12.074Z,24.7
2018-05-21T11:28:10.992Z,24.7
2018-05-21T11:38:10.502Z,24.8
2018-05-21T11:48:09.403Z,24.8
2018-05-21T11:58:08.649Z,24.8
2018-05-21T12:08:07.921Z,24.8
2018-05-21T12:18:07.166Z,24.8
2018-05-21T12:28:06.272Z,24.8
2018-05-21T12:38:05.847Z,24.8
2018-05-21T12:48:04.686Z,24.8
2018-05-21T12:58:03.937Z,24.8
2018-05-21T13:08:03.261Z,24.8
2018-05-21T13:18:02.741Z,24.8
2018-05-21T13:28:01.612Z,24.8
2018-05-21T13:38:01.145Z,24.8
2018-05-21T13:48:00.070Z,24.8
2018-05-21T13:57:59.783Z,24.8
2018-05-21T14:07:58.588Z,24.8
2018-05-21T14:17:57.960Z,24.8
2018-05-21T14:27:57.219Z,24.8
2018-05-21T14:37:56.563Z,24.8
2018-05-21T14:47:55.298Z,24.8
2018-05-21T14:57:54.859Z,24.8
2018-05-21T15:07:53.790Z,24.8
2018-05-21T15:17:53.241Z,24.8
2018-05-21T15:27:53.185Z,24.9
2018-05-21T15:37:51.427Z,24.8
2018-05-21T15:47:50.609Z,24.8
2018-05-21T15:57:49.904Z,24.8
2018-05-21T16:07:49.130Z,24.8
2018-05-21T16:17:48.348Z,24.8
2018-05-21T16:27:48.209Z,24.8
2018-05-21T16:37:46.740Z,24.8
2018-05-21T16:47:46.333Z,24.8
2018-05-21T16:57:45.291Z,24.8
2018-05-21T17:07:44.427Z,24.8
2018-05-21T17:17:43.665Z,24.8
2018-05-21T17:27:42.928Z,24.5
2018-05-21T17:37:42.102Z,24.1
2018-05-21T17:47:41.299Z,23.6
2018-05-21T17:57:40.463Z,23.3
2018-05-21T18:07:39.783Z,23.3
2018-05-21T18:17:38.989Z,23.5
2018-05-21T18:27:38.319Z,23.7
2018-05-21T18:37:37.647Z,23.8
2018-05-21T18:47:36.898Z,23.9
2018-05-21T18:57:35.853Z,24.1
2018-05-21T19:07:35.487Z,24.2
2018-05-21T19:17:34.297Z,24.2
2018-05-21T19:27:33.484Z,24.3
2018-05-21T19:37:32.710Z,24.5
2018-05-21T19:47:31.995Z,24.5
2018-05-21T19:57:31.549Z,24.5
2018-05-21T20:07:30.384Z,24.7
2018-05-21T20:17:29.757Z,24.7
2018-05-21T20:27:28.751Z,24.7
2018-05-21T20:37:28.260Z,24.7
2018-05-21T20:47:27.415Z,24.7
2018-05-21T20:57:26.480Z,24.8
2018-05-21T21:07:26.140Z,24.8
2018-05-21T21:17:24.949Z,24.8
2018-05-21T21:27:24.085Z,24.8
2018-05-21T21:37:23.772Z,24.8
2018-05-21T21:47:22.782Z,24.8
2018-05-21T21:57:21.789Z,24.8
2018-05-21T22:07:21.163Z,24.8
2018-05-21T22:17:20.223Z,24.8
2018-05-21T22:27:19.674Z,24.8
2018-05-21T22:37:18.874Z,24.7
2018-05-21T22:47:18.165Z,24.6
2018-05-21T22:57:17.148Z,24.6
2018-05-21T23:07:16.254Z,24.6
2018-05-21T23:17:15.460Z,24.5
2018-05-21T23:27:14.957Z,24.5
2018-05-21T23:37:13.930Z,24.6
2018-05-21T23:47:13.335Z,24.6
2018-05-21T23:57:12.521Z,24.6
